Time;durP1;ratioP1;P1;durP2;ratioP2;P2;SDS_P1;SDS_P2;PMS_P1;PMS_P2;Temp;Humidity;BMP_temperature;BMP_pressure;BME280_temperature;BME280_humidity;BME280_pressure;Samples;Min_cycle;Max_cycle;Signal;HPM_P1;HPM_P2
2022/02/13 00:00:47;;;;;;;485.17;465.37;;;-0.20;99.90;;;;;;5040183;28;20463;-81
2022/02/13 00:03:14;;;;;;;494.37;473.77;;;-0.20;99.90;;;;;;5040034;28;20478;-80
2022/02/13 00:05:41;;;;;;;505.50;484.33;;;-0.20;99.90;;;;;;5040395;28;20480;-80
2022/02/13 00:08:08;;;;;;;534.97;511.17;;;-0.30;99.90;;;;;;5039650;28;20463;-80
2022/02/13 00:10:34;;;;;;;536.07;511.87;;;-0.30;99.90;;;;;;5040595;28;21018;-80
2022/02/13 00:13:02;;;;;;;547.27;522.97;;;-0.20;99.90;;;;;;5039804;28;20842;-80
2022/02/13 00:15:29;;;;;;;538.70;514.33;;;-0.30;99.90;;;;;;5040501;28;20455;-80
2022/02/13 00:17:56;;;;;;;540.47;515.97;;;-0.30;99.90;;;;;;5039500;28;20448;-81
2022/02/13 00:20:23;;;;;;;533.17;509.10;;;-0.30;99.90;;;;;;5039883;28;20198;-80
2022/02/13 00:22:50;;;;;;;515.90;493.40;;;-0.30;99.90;;;;;;5039182;28;20475;-81
2022/02/13 00:25:18;;;;;;;491.27;471.37;;;-0.20;99.90;;;;;;5039704;28;20851;-81
2022/02/13 00:27:45;;;;;;;464.30;445.40;;;-0.20;99.90;;;;;;5039867;28;20505;-80
2022/02/13 00:30:14;;;;;;;434.80;417.50;;;-0.20;99.90;;;;;;5039329;28;20490;-80
2022/02/13 00:32:43;;;;;;;382.93;368.30;;;-0.10;99.90;;;;;;5038900;28;20464;-80
2022/02/13 00:35:11;;;;;;;343.33;330.23;;;0.00;99.90;;;;;;5039819;28;20937;-81
2022/02/13 00:37:38;;;;;;;311.10;299.88;;;-0.10;99.90;;;;;;5037175;28;20448;-80
2022/02/13 00:40:06;;;;;;;296.33;286.20;;;-0.10;99.90;;;;;;5039107;28;20659;-80
2022/02/13 00:42:33;;;;;;;278.30;268.37;;;0.00;99.90;;;;;;5045203;28;20478;-80
2022/02/13 00:45:00;;;;;;;272.20;262.80;;;-0.10;99.90;;;;;;5051244;28;20451;-80
2022/02/13 00:47:33;;;;;;;285.17;274.77;;;-0.10;99.90;;;;;;5052215;28;20480;-79
2022/02/13 00:50:01;;;;;;;298.38;287.67;;;-0.20;99.90;;;;;;5040875;28;20452;-80
2022/02/13 00:52:27;;;;;;;311.87;301.07;;;-0.10;99.90;;;;;;5039193;28;20705;-81
2022/02/13 00:54:54;;;;;;;315.73;304.60;;;-0.20;99.90;;;;;;5040153;28;20502;-81
2022/02/13 00:57:21;;;;;;;318.87;307.73;;;-0.20;99.90;;;;;;5040355;28;20456;-80
2022/02/13 00:59:48;;;;;;;319.73;308.47;;;-0.20;99.90;;;;;;5039414;28;20451;-81
2022/02/13 01:02:14;;;;;;;328.70;317.10;;;-0.20;99.90;;;;;;5051729;28;20472;-79
2022/02/13 01:04:42;;;;;;;318.50;307.40;;;-0.30;99.90;;;;;;5031459;28;20463;-79
2022/02/13 01:07:09;;;;;;;314.90;303.80;;;-0.30;99.90;;;;;;5034594;28;21509;-79
2022/02/13 01:09:36;;;;;;;338.20;326.20;;;-0.40;99.90;;;;;;5042339;28;20456;-80
2022/02/13 01:12:03;;;;;;;319.70;308.67;;;-0.40;99.90;;;;;;5038339;28;20221;-80
2022/02/13 01:14:30;;;;;;;340.30;328.30;;;-0.40;99.90;;;;;;5038107;28;20467;-80
2022/02/13 01:16:57;;;;;;;332.37;320.37;;;-0.40;99.90;;;;;;5038556;28;20452;-80
2022/02/13 01:19:24;;;;;;;331.38;319.90;;;-0.50;99.90;;;;;;5038216;28;20453;-80
2022/02/13 01:24:22;;;;;;;374.97;361.57;;;-0.40;99.90;;;;;;5047258;23;20492;-83
2022/02/13 01:26:53;;;;;;;382.73;368.87;;;-0.50;99.90;;;;;;5027786;28;20282;-84
2022/02/13 01:29:20;;;;;;;394.52;380.60;;;-0.60;99.90;;;;;;5028637;28;20782;-84
2022/02/13 01:31:47;;;;;;;395.27;380.87;;;-0.60;99.90;;;;;;5027769;28;20290;-84
2022/02/13 01:34:18;;;;;;;392.73;378.27;;;-0.70;99.90;;;;;;5047356;28;20507;-84
2022/02/13 01:36:47;;;;;;;385.30;370.40;;;-0.50;99.90;;;;;;5048433;28;20476;-84
2022/02/13 01:39:18;;;;;;;368.70;355.23;;;-0.40;99.90;;;;;;5048115;28;20453;-84
2022/02/13 01:41:49;;;;;;;358.30;345.42;;;-0.50;99.90;;;;;;5048725;28;20455;-84
2022/02/13 01:44:27;;;;;;;359.27;346.17;;;-0.40;99.90;;;;;;5047246;28;20210;-84
2022/02/13 01:46:54;;;;;;;361.40;348.60;;;-0.50;99.90;;;;;;5046945;28;20214;-85
2022/02/13 01:49:27;;;;;;;381.27;367.80;;;-0.50;99.90;;;;;;5046975;28;20512;-84
2022/02/13 01:52:05;;;;;;;375.50;362.07;;;-0.40;99.90;;;;;;5048047;28;20457;-83
2022/02/13 01:54:33;;;;;;;368.03;354.87;;;-0.30;99.90;;;;;;5047401;28;20480;-84
2022/02/13 01:57:04;;;;;;;370.40;357.02;;;-0.30;99.90;;;;;;5047055;28;20455;-84
2022/02/13 01:59:31;;;;;;;377.93;364.37;;;-0.40;99.90;;;;;;5046981;28;20200;-84
2022/02/13 02:01:59;;;;;;;358.23;345.20;;;-0.50;99.90;;;;;;5047160;28;20475;-83
2022/02/13 02:04:26;;;;;;;362.38;348.55;;;-0.30;99.90;;;;;;5046590;28;20448;-84
2022/02/13 02:06:54;;;;;;;375.10;361.43;;;-0.30;99.90;;;;;;5047966;28;20309;-84
2022/02/13 02:09:24;;;;;;;367.73;355.03;;;-0.20;99.90;;;;;;5046035;28;20452;-83
2022/02/13 02:11:51;;;;;;;365.90;352.53;;;-0.50;99.90;;;;;;5047547;28;20448;-84
2022/02/13 02:14:20;;;;;;;370.65;357.45;;;-0.40;99.90;;;;;;5047841;28;20455;-84
2022/02/13 02:16:47;;;;;;;359.70;346.57;;;-0.50;99.90;;;;;;5047651;28;20261;-84
2022/02/13 02:19:13;;;;;;;364.53;351.20;;;-0.40;99.90;;;;;;5047331;28;20470;-84
2022/02/13 02:21:45;;;;;;;361.10;347.70;;;-0.50;99.90;;;;;;5047353;28;20448;-84
2022/02/13 02:24:18;;;;;;;370.27;356.97;;;-0.60;99.90;;;;;;5046669;28;20476;-84
2022/02/13 02:26:48;;;;;;;387.03;373.43;;;-0.70;99.90;;;;;;5046753;28;20476;-84
2022/02/13 02:29:15;;;;;;;401.47;387.30;;;-0.60;99.90;;;;;;5046797;28;20520;-84
2022/02/13 02:31:42;;;;;;;438.63;422.48;;;-0.70;99.90;;;;;;5045945;28;20889;-84
2022/02/13 02:34:17;;;;;;;445.37;428.57;;;-0.70;99.90;;;;;;5047146;28;20225;-84
2022/02/13 02:36:44;;;;;;;449.92;432.70;;;-0.80;99.90;;;;;;5047003;28;20448;-84
2022/02/13 02:39:11;;;;;;;466.73;447.80;;;-0.90;99.90;;;;;;5046425;28;20265;-85
2022/02/13 02:41:39;;;;;;;498.55;476.50;;;-0.90;99.90;;;;;;5047279;28;20444;-85
2022/02/13 02:44:09;;;;;;;505.20;483.08;;;-1.00;99.90;;;;;;5047144;28;20221;-84
2022/02/13 02:46:36;;;;;;;506.65;484.92;;;-1.00;99.90;;;;;;5046963;28;20237;-84
2022/02/13 02:49:03;;;;;;;521.45;498.17;;;-1.10;99.90;;;;;;5047382;28;20236;-84
2022/02/13 02:51:32;;;;;;;495.67;473.60;;;-1.10;99.90;;;;;;5047634;28;20224;-84
2022/02/13 02:53:59;;;;;;;506.38;483.58;;;-1.00;99.90;;;;;;5046709;28;20472;-84
2022/02/13 02:56:28;;;;;;;513.03;490.15;;;-1.10;99.90;;;;;;5047347;28;20232;-84
2022/02/13 02:58:57;;;;;;;528.58;504.05;;;-1.10;99.90;;;;;;5046931;28;20201;-84
2022/02/13 03:01:23;;;;;;;547.50;521.00;;;-1.20;99.90;;;;;;5027485;28;20194;-84
2022/02/13 03:03:51;;;;;;;547.92;521.35;;;-1.20;99.90;;;;;;5035071;28;20236;-84
2022/02/13 03:06:17;;;;;;;580.40;550.00;;;-1.20;99.90;;;;;;5047571;28;20213;-84
2022/02/13 03:08:46;;;;;;;551.95;522.97;;;-1.10;99.90;;;;;;5049055;28;20190;-84
2022/02/13 03:11:41;;;;;;;517.70;492.30;;;-1.10;99.90;;;;;;5051450;28;20616;-84
2022/02/13 03:14:26;;;;;;;500.02;476.95;;;-1.00;99.90;;;;;;5050213;28;20464;-84
2022/02/13 03:17:22;;;;;;;;;;;;;;;;;;;;;
2022/02/13 03:19:56;;;;;;;517.28;492.70;;;-1.10;99.90;;;;;;5050489;28;20217;-83
2022/02/13 03:22:30;;;;;;;534.33;509.27;;;-1.30;99.90;;;;;;5051193;28;20224;-84
2022/02/13 03:28:10;;;;;;;554.67;528.07;;;-1.20;99.90;;;;;;5041578;28;20218;-84
2022/02/13 03:30:53;;;;;;;584.57;555.63;;;-1.30;99.90;;;;;;5050557;28;20459;-84
2022/02/13 03:33:28;;;;;;;588.45;559.45;;;-1.30;99.90;;;;;;5050902;28;20468;-83
2022/02/13 03:36:17;;;;;;;;;;;;;;;;;;;;;
2022/02/13 03:38:57;;;;;;;620.03;582.83;;;-1.20;99.90;;;;;;5051397;28;20186;-84
2022/02/13 03:41:38;;;;;;;602.33;572.35;;;-1.20;99.90;;;;;;5049950;28;20201;-84
2022/02/13 03:44:29;;;;;;;581.40;553.25;;;-1.20;99.90;;;;;;5048410;28;20213;-84
2022/02/13 03:47:41;;;;;;;585.67;556.42;;;-1.30;99.90;;;;;;5049754;28;20236;-84
2022/02/13 03:50:49;;;;;;;614.87;584.07;;;-1.30;99.90;;;;;;5047589;28;20221;-84
2022/02/13 03:56:51;;;;;;;608.65;577.42;;;-1.30;99.90;;;;;;4931234;28;20217;-84
2022/02/13 03:59:58;;;;;;;608.13;575.97;;;-1.30;99.90;;;;;;4979898;28;20231;-84
2022/02/13 04:06:24;;;;;;;623.55;589.88;;;-1.30;99.90;;;;;;5030386;28;20201;-84
2022/02/13 04:09:02;;;;;;;636.53;603.60;;;-1.40;99.90;;;;;;5037009;28;20181;-84
2022/02/13 04:11:49;;;;;;;626.17;593.33;;;-1.40;99.90;;;;;;5049719;28;20204;-84
2022/02/13 04:17:28;;;;;;;639.40;604.90;;;-1.40;99.90;;;;;;5048161;28;20198;-84
2022/02/13 04:20:20;;;;;;;618.80;586.55;;;-1.50;99.90;;;;;;5049659;28;20190;-84
2022/02/13 04:22:52;;;;;;;584.30;553.10;;;-1.40;99.90;;;;;;5050644;28;20229;-84
2022/02/13 04:25:30;;;;;;;553.25;525.75;;;-1.30;99.90;;;;;;5050248;28;20190;-84
2022/02/13 04:28:04;;;;;;;528.20;502.27;;;-1.40;99.90;;;;;;5051146;28;20221;-83
2022/02/13 04:30:33;;;;;;;505.20;481.00;;;-1.40;99.90;;;;;;5050370;28;20198;-83
2022/02/13 04:33:17;;;;;;;484.98;463.60;;;-1.30;99.90;;;;;;5050381;28;20256;-83
2022/02/13 04:36:20;;;;;;;485.38;463.52;;;-1.40;99.90;;;;;;5050487;28;20568;-83
2022/02/13 04:38:47;;;;;;;489.33;467.52;;;-1.50;99.90;;;;;;5050631;28;20189;-81
2022/02/13 04:41:15;;;;;;;495.95;474.08;;;-1.60;99.90;;;;;;5051695;28;20232;-80
2022/02/13 04:43:51;;;;;;;503.13;480.88;;;-1.50;99.90;;;;;;5046735;28;20214;-83
2022/02/13 04:46:34;;;;;;;516.75;493.95;;;-1.60;99.90;;;;;;5046860;28;20189;-84
2022/02/13 04:49:28;;;;;;;527.17;502.38;;;-1.60;99.90;;;;;;5036002;28;20264;-86
2022/02/13 04:52:00;;;;;;;544.97;519.58;;;-1.70;99.90;;;;;;5047009;28;20281;-83
2022/02/13 04:55:07;;;;;;;590.03;561.17;;;-1.80;99.90;;;;;;5045968;28;20225;-84
2022/02/13 05:01:13;;;;;;;658.90;622.40;;;-1.90;99.90;;;;;;5058163;28;20212;-84
2022/02/13 05:04:14;;;;;;;654.42;617.08;;;-1.70;99.90;;;;;;5065588;28;20231;-83
2022/02/13 05:07:09;;;;;;;668.67;631.33;;;-1.70;99.90;;;;;;5065628;28;20231;-83
2022/02/13 05:10:01;;;;;;;647.13;611.60;;;-1.60;99.90;;;;;;5059541;28;20185;-84
2022/02/13 05:13:02;;;;;;;640.80;604.00;;;-1.70;99.90;;;;;;5047018;28;20238;-84
2022/02/13 05:15:55;;;;;;;649.67;613.47;;;-1.80;99.90;;;;;;5023044;28;20208;-84
2022/02/13 05:19:10;;;;;;;637.00;600.55;;;-1.70;99.90;;;;;;5037273;28;20284;-84
2022/02/13 05:28:19;;;;;;;636.70;601.80;;;-1.40;99.90;;;;;;5042305;28;20221;-84
2022/02/13 05:30:54;;;;;;;611.35;577.90;;;-1.60;99.90;;;;;;5043918;28;20208;-84
2022/02/13 05:33:49;;;;;;;608.80;575.38;;;-1.40;99.90;;;;;;5042799;28;20225;-86
2022/02/13 05:36:38;;;;;;;598.90;566.50;;;-1.30;99.90;;;;;;5003400;28;20203;-84
2022/02/13 05:39:47;;;;;;;581.42;551.08;;;-1.50;99.90;;;;;;5040532;28;20300;-85
2022/02/13 05:45:45;;;;;;;568.60;538.00;;;-1.30;99.90;;;;;;5045237;28;20194;-84
2022/02/13 05:48:48;;;;;;;560.78;531.88;;;-1.30;99.90;;;;;;5045162;28;20670;-83
2022/02/13 05:51:43;;;;;;;531.47;505.10;;;-1.30;99.90;;;;;;5046208;28;20256;-84
2022/02/13 05:54:33;;;;;;;516.40;491.60;;;-1.20;99.90;;;;;;5044315;28;20507;-83
2022/02/13 05:57:42;;;;;;;494.38;472.25;;;-1.10;99.90;;;;;;5046657;28;20495;-84
2022/02/13 06:03:26;;;;;;;479.38;457.83;;;-1.00;99.90;;;;;;5045801;28;20205;-83
2022/02/13 06:06:10;;;;;;;485.33;463.73;;;-1.10;99.90;;;;;;5046235;28;20231;-84
2022/02/13 06:08:49;;;;;;;471.73;451.93;;;-1.00;99.90;;;;;;5045942;28;20217;-84
2022/02/13 06:11:27;;;;;;;467.92;448.00;;;-1.00;99.90;;;;;;5046766;28;20455;-84
2022/02/13 06:14:00;;;;;;;454.75;436.05;;;-0.90;99.90;;;;;;5046789;28;20300;-84
2022/02/13 06:16:43;;;;;;;442.73;424.55;;;-1.00;99.90;;;;;;5045875;28;20301;-84
2022/02/13 06:19:39;;;;;;;;;;;;;;;;;;;;;
2022/02/13 06:22:21;;;;;;;445.63;427.73;;;-1.00;99.90;;;;;;5045378;28;20266;-84
2022/02/13 06:25:00;;;;;;;433.25;415.55;;;-1.00;99.90;;;;;;5045821;28;20206;-83
2022/02/13 06:27:32;;;;;;;442.73;424.48;;;-1.00;99.90;;;;;;5042731;28;20217;-83
2022/02/13 06:30:32;;;;;;;451.70;432.90;;;-1.00;99.90;;;;;;5043479;28;20182;-83
2022/02/13 06:33:07;;;;;;;456.48;437.73;;;-1.00;99.90;;;;;;5042460;28;20232;-83
2022/02/13 06:36:21;;;;;;;484.75;463.58;;;-1.10;99.90;;;;;;5044299;28;20272;-84
2022/02/13 06:42:11;;;;;;;491.20;469.80;;;-1.10;99.90;;;;;;5041417;28;20261;-84
2022/02/13 06:47:46;;;;;;;489.42;468.10;;;-1.20;99.90;;;;;;5036407;28;20213;-83
2022/02/13 06:50:13;;;;;;;491.98;471.08;;;-1.30;99.90;;;;;;5044162;28;20666;-83
2022/02/13 06:53:19;;;;;;;492.63;471.23;;;-1.20;99.90;;;;;;5043685;28;20210;-83
2022/02/13 06:56:12;;;;;;;490.95;468.25;;;-1.30;99.90;;;;;;5038353;28;20205;-83
2022/02/13 06:58:53;;;;;;;485.98;464.45;;;-1.10;99.90;;;;;;5043258;28;20189;-83
2022/02/13 07:01:25;;;;;;;478.53;458.07;;;-1.20;99.90;;;;;;5042458;28;20198;-83
2022/02/13 07:03:52;;;;;;;461.52;441.25;;;-1.10;99.90;;;;;;5044100;28;21210;-83
2022/02/13 07:06:18;;;;;;;469.92;448.95;;;-1.10;99.90;;;;;;5034351;28;20204;-84
2022/02/13 07:08:46;;;;;;;416.43;399.73;;;-0.90;99.90;;;;;;5033370;28;20217;-84
2022/02/13 07:11:13;;;;;;;424.90;407.57;;;-0.90;99.90;;;;;;5031702;28;20453;-84
2022/02/13 07:13:40;;;;;;;396.27;379.43;;;-0.70;99.90;;;;;;5034382;28;20484;-84
2022/02/13 07:16:06;;;;;;;369.00;355.10;;;-0.60;99.90;;;;;;5032768;28;20452;-84
2022/02/13 07:18:33;;;;;;;333.80;321.73;;;-0.50;99.90;;;;;;5034198;28;20483;-83
2022/02/13 07:21:00;;;;;;;291.23;280.65;;;-0.50;99.90;;;;;;5034204;28;20194;-83
2022/02/13 07:23:33;;;;;;;249.37;240.53;;;-0.40;99.90;;;;;;5107720;23;20237;-83
2022/02/13 07:26:01;;;;;;;240.87;232.37;;;-0.30;99.90;;;;;;5024549;28;20457;-82
2022/02/13 07:31:12;;;;;;;157.63;151.73;;;-0.20;99.90;;;;;;5022210;28;20225;-83
2022/02/13 07:33:39;;;;;;;82.07;77.70;;;-0.10;99.90;;;;;;5034067;28;20478;-83
2022/02/13 07:36:06;;;;;;;66.47;63.07;;;0.10;98.70;;;;;;5045560;28;20455;-83
2022/02/13 07:38:32;;;;;;;58.50;55.40;;;0.10;97.90;;;;;;5045561;28;20487;-83
2022/02/13 07:41:01;;;;;;;49.47;46.57;;;0.20;98.10;;;;;;5045221;28;20452;-82
2022/02/13 07:43:27;;;;;;;48.20;45.50;;;0.30;97.40;;;;;;5044484;28;20468;-82
2022/02/13 07:45:54;;;;;;;53.10;50.30;;;0.30;97.10;;;;;;5044226;28;20189;-83
2022/02/13 07:48:21;;;;;;;45.73;43.20;;;0.30;97.60;;;;;;5046175;28;20455;-83
2022/02/13 07:50:47;;;;;;;53.33;50.30;;;0.40;97.40;;;;;;5042733;28;20455;-81
2022/02/13 07:53:14;;;;;;;53.83;50.63;;;0.50;97.40;;;;;;5045345;28;20471;-82
2022/02/13 07:55:41;;;;;;;55.47;51.93;;;0.60;97.40;;;;;;5044951;28;20190;-82
2022/02/13 07:58:09;;;;;;;55.53;52.57;;;0.60;97.40;;;;;;5049279;28;20472;-81
2022/02/13 08:00:36;;;;;;;46.40;43.90;;;0.70;97.10;;;;;;5050804;28;20449;-82
2022/02/13 08:03:04;;;;;;;44.97;41.80;;;0.80;96.30;;;;;;5049853;28;20468;-82
2022/02/13 08:05:30;;;;;;;40.13;37.63;;;0.90;96.20;;;;;;5051981;28;20516;-83
2022/02/13 08:07:57;;;;;;;34.90;32.60;;;0.90;95.60;;;;;;5050515;28;20448;-82
2022/02/13 08:10:24;;;;;;;32.17;29.63;;;1.00;95.40;;;;;;5050282;28;20462;-83
2022/02/13 08:12:53;;;;;;;24.93;22.80;;;1.10;95.30;;;;;;5051503;28;20478;-83
2022/02/13 08:15:21;;;;;;;26.57;23.80;;;1.10;94.60;;;;;;5050976;28;20496;-83
2022/02/13 08:17:48;;;;;;;23.83;21.50;;;1.20;94.70;;;;;;5047313;28;20472;-80
2022/02/13 08:20:15;;;;;;;24.50;22.23;;;1.20;94.70;;;;;;5046903;28;20449;-81
2022/02/13 08:22:43;;;;;;;23.83;19.83;;;1.30;94.70;;;;;;5046574;28;20495;-81
2022/02/13 08:25:11;;;;;;;20.17;18.27;;;1.30;93.90;;;;;;5046738;28;20456;-82
2022/02/13 08:27:38;;;;;;;18.37;16.50;;;1.50;93.60;;;;;;5043969;28;20452;-82
2022/02/13 08:30:05;;;;;;;20.93;18.87;;;1.50;93.20;;;;;;5041446;28;20448;-81
2022/02/13 08:32:33;;;;;;;17.40;13.47;;;1.60;92.90;;;;;;5042396;28;20781;-81
2022/02/13 08:35:01;;;;;;;17.20;12.57;;;1.60;91.80;;;;;;5044922;28;20452;-81
2022/02/13 08:37:27;;;;;;;17.93;14.07;;;1.70;91.20;;;;;;5043264;28;20491;-81
2022/02/13 08:39:54;;;;;;;14.40;11.73;;;1.70;91.20;;;;;;5040760;28;20476;-81
2022/02/13 08:42:24;;;;;;;17.13;13.00;;;1.70;91.00;;;;;;5042853;28;20449;-80
2022/02/13 08:44:50;;;;;;;17.07;12.47;;;1.90;91.00;;;;;;5039484;28;20457;-81
2022/02/13 08:47:18;;;;;;;21.30;11.00;;;2.00;90.20;;;;;;5042379;28;20449;-82
2022/02/13 08:49:47;;;;;;;18.90;11.07;;;2.10;88.80;;;;;;5041894;28;20535;-81
2022/02/13 08:52:14;;;;;;;14.73;10.50;;;2.20;88.70;;;;;;5042889;28;20488;-81
2022/02/13 08:54:41;;;;;;;16.33;11.67;;;2.30;87.20;;;;;;5041838;28;20531;-81
2022/02/13 08:57:07;;;;;;;26.60;11.67;;;2.40;86.70;;;;;;5042801;28;20452;-82
2022/02/13 08:59:34;;;;;;;22.23;10.70;;;2.50;86.80;;;;;;5044118;28;20472;-82
2022/02/13 09:02:01;;;;;;;13.90;10.40;;;2.60;86.90;;;;;;5043890;28;20452;-81
2022/02/13 09:04:27;;;;;;;17.43;11.60;;;2.70;86.60;;;;;;5040442;28;20502;-83
2022/02/13 09:06:56;;;;;;;13.53;9.67;;;2.80;84.30;;;;;;5042902;28;20455;-81
2022/02/13 09:09:24;;;;;;;15.07;9.70;;;2.80;83.60;;;;;;5042735;28;20527;-82
2022/02/13 09:11:50;;;;;;;16.30;10.43;;;2.90;82.10;;;;;;5042751;28;20634;-81
2022/02/13 09:14:17;;;;;;;12.70;9.00;;;3.00;81.80;;;;;;5024536;28;20994;-81
2022/02/13 09:16:44;;;;;;;19.57;9.07;;;3.10;79.90;;;;;;5037744;28;20459;-82
2022/02/13 09:19:11;;;;;;;17.13;9.13;;;3.20;79.90;;;;;;5037809;28;20480;-81
2022/02/13 09:21:38;;;;;;;14.03;8.47;;;3.40;78.50;;;;;;5036806;28;20543;-80
2022/02/13 09:24:07;;;;;;;12.83;9.10;;;3.40;77.90;;;;;;5035144;28;20801;-82
2022/02/13 09:26:35;;;;;;;11.03;7.80;;;3.40;78.50;;;;;;5037811;28;20460;-82
2022/02/13 09:29:02;;;;;;;12.97;9.37;;;3.50;76.90;;;;;;5037416;28;20535;-82
2022/02/13 09:31:29;;;;;;;16.80;10.47;;;3.60;76.00;;;;;;5035972;28;20459;-81
2022/02/13 09:33:56;;;;;;;15.07;9.50;;;3.70;74.80;;;;;;5035606;28;20849;-82
2022/02/13 09:36:22;;;;;;;14.77;9.30;;;3.70;73.90;;;;;;5032868;28;20463;-80
2022/02/13 09:38:49;;;;;;;16.23;9.57;;;3.80;72.70;;;;;;5035204;28;20476;-81
2022/02/13 09:41:18;;;;;;;12.53;8.37;;;4.00;72.90;;;;;;5035351;28;20468;-81
2022/02/13 09:43:46;;;;;;;16.63;9.47;;;4.00;72.60;;;;;;5037235;28;20472;-81
2022/02/13 09:46:14;;;;;;;12.17;7.00;;;4.10;71.10;;;;;;5033629;28;20458;-81
2022/02/13 09:48:41;;;;;;;15.20;8.70;;;4.20;70.90;;;;;;5035649;28;20457;-81
2022/02/13 09:51:10;;;;;;;18.33;10.10;;;4.30;69.70;;;;;;5037756;28;20465;-82
2022/02/13 09:53:37;;;;;;;18.00;8.60;;;4.40;68.50;;;;;;5037388;28;20479;-81
2022/02/13 09:56:04;;;;;;;13.70;9.63;;;4.60;67.80;;;;;;5038417;28;20464;-81
2022/02/13 09:58:34;;;;;;;12.60;8.60;;;4.80;66.30;;;;;;5038709;28;20479;-82
2022/02/13 10:01:02;;;;;;;11.33;8.00;;;4.80;64.70;;;;;;5039130;28;20463;-82
2022/02/13 10:03:31;;;;;;;11.87;8.10;;;5.00;64.10;;;;;;5038192;28;20504;-82
2022/02/13 10:06:00;;;;;;;12.30;8.50;;;5.20;61.40;;;;;;5038676;28;20463;-81
2022/02/13 10:08:32;;;;;;;13.07;7.77;;;5.70;62.10;;;;;;5036857;28;21027;-81
2022/02/13 10:11:14;;;;;;;12.37;7.97;;;6.00;58.60;;;;;;5037978;28;20452;-81
2022/02/13 10:13:51;;;;;;;9.87;6.97;;;6.40;57.30;;;;;;5034880;28;20475;-82
2022/02/13 10:16:24;;;;;;;8.90;6.30;;;6.70;53.30;;;;;;5038466;28;20459;-82
2022/02/13 10:18:53;;;;;;;13.77;7.30;;;6.90;52.30;;;;;;5038342;28;20494;-82
2022/02/13 10:21:45;;;;;;;10.87;7.07;;;7.20;50.80;;;;;;5038677;28;20459;-82
2022/02/13 10:24:13;;;;;;;11.23;7.30;;;7.40;50.50;;;;;;5038538;28;20484;-82
2022/02/13 10:26:40;;;;;;;11.30;7.60;;;7.70;47.70;;;;;;5037711;28;20460;-82
2022/02/13 10:29:10;;;;;;;13.47;6.90;;;7.90;46.30;;;;;;5038530;28;20461;-82
2022/02/13 10:31:37;;;;;;;12.23;6.90;;;7.70;44.50;;;;;;5038831;28;20452;-83
2022/02/13 10:34:04;;;;;;;13.60;6.90;;;8.00;45.30;;;;;;5037660;28;20468;-83
2022/02/13 10:36:38;;;;;;;10.67;6.73;;;7.90;44.10;;;;;;5036466;28;20448;-81
2022/02/13 10:39:16;;;;;;;16.03;8.23;;;8.00;43.10;;;;;;5035222;28;20479;-81
2022/02/13 10:41:44;;;;;;;12.90;6.70;;;8.10;43.20;;;;;;5036081;28;20441;-82
2022/02/13 10:44:12;;;;;;;12.73;7.30;;;8.50;43.50;;;;;;5017387;28;20477;-82
2022/02/13 10:46:41;;;;;;;10.40;6.07;;;8.60;42.80;;;;;;5022360;28;20452;-82
2022/02/13 10:49:09;;;;;;;12.80;7.27;;;9.10;41.20;;;;;;5036248;28;20456;-82
2022/02/13 10:51:36;;;;;;;10.93;7.17;;;9.20;40.40;;;;;;5036320;28;20453;-82
2022/02/13 10:54:05;;;;;;;11.50;7.03;;;9.60;38.50;;;;;;5035800;28;21019;-82
2022/02/13 10:56:34;;;;;;;12.00;6.77;;;9.70;37.50;;;;;;5035927;28;20456;-83
2022/02/13 10:59:02;;;;;;;12.07;6.57;;;9.80;38.10;;;;;;5036054;28;21003;-83
2022/02/13 11:01:30;;;;;;;11.50;7.23;;;9.80;36.20;;;;;;5036316;28;20475;-82
2022/02/13 11:04:03;;;;;;;11.70;7.23;;;10.00;35.50;;;;;;5035294;28;20473;-83
2022/02/13 11:06:32;;;;;;;13.70;8.20;;;10.20;36.40;;;;;;5035287;28;20448;-82
2022/02/13 11:09:03;;;;;;;11.87;6.50;;;10.10;34.70;;;;;;5033610;28;20444;-82
2022/02/13 11:11:31;;;;;;;10.80;7.17;;;10.50;35.50;;;;;;5034599;28;20455;-82
2022/02/13 11:13:59;;;;;;;12.73;7.23;;;10.80;35.80;;;;;;5035389;28;20467;-82
2022/02/13 11:16:32;;;;;;;16.60;7.10;;;11.00;35.80;;;;;;5035454;28;20480;-82
2022/02/13 11:19:02;;;;;;;14.40;6.43;;;11.40;33.50;;;;;;5035292;28;20502;-82
2022/02/13 11:21:31;;;;;;;12.17;7.03;;;11.50;32.50;;;;;;5035541;28;20448;-84
2022/02/13 11:23:59;;;;;;;9.47;5.70;;;11.90;31.20;;;;;;5035372;28;20488;-82
2022/02/13 11:26:41;;;;;;;9.50;6.00;;;11.90;30.00;;;;;;5036619;28;20452;-82
2022/02/13 11:29:10;;;;;;;10.50;6.47;;;12.20;29.90;;;;;;5035096;28;20477;-82
2022/02/13 11:31:42;;;;;;;16.00;6.63;;;12.10;29.80;;;;;;5040594;28;20486;-82
2022/02/13 11:34:12;;;;;;;12.60;5.87;;;12.20;28.50;;;;;;5039017;28;20489;-84
2022/02/13 11:36:42;;;;;;;20.97;7.03;;;12.10;28.50;;;;;;5039056;28;20471;-82
2022/02/13 11:39:09;;;;;;;10.17;5.20;;;12.30;28.60;;;;;;5039255;28;20448;-82
2022/02/13 11:42:08;;;;;;;11.27;6.30;;;12.10;28.50;;;;;;5027418;28;20514;-82
2022/02/13 11:44:57;;;;;;;10.33;5.70;;;11.80;28.30;;;;;;5031158;28;20475;-81
2022/02/13 11:47:41;;;;;;;11.27;5.83;;;11.50;29.40;;;;;;5037869;28;20517;-83
2022/02/13 11:50:24;;;;;;;10.73;6.00;;;11.40;32.40;;;;;;5037170;28;20475;-83
2022/02/13 11:53:01;;;;;;;8.40;5.43;;;11.30;31.80;;;;;;5028900;28;20468;-82
2022/02/13 11:55:31;;;;;;;9.20;4.90;;;11.40;32.80;;;;;;5037619;28;20454;-82
2022/02/13 11:58:00;;;;;;;9.03;5.17;;;11.30;31.70;;;;;;5037729;28;20456;-82
2022/02/13 12:00:39;;;;;;;8.23;4.87;;;11.30;30.20;;;;;;5033720;28;20444;-83
2022/02/13 12:03:16;;;;;;;7.00;3.53;;;11.40;29.60;;;;;;5038009;28;20482;-82
2022/02/13 12:05:44;;;;;;;6.93;3.53;;;11.20;24.60;;;;;;5037726;28;20487;-83
2022/02/13 12:08:10;;;;;;;12.13;2.83;;;11.10;24.70;;;;;;5038233;28;20479;-84
2022/02/13 12:10:45;;;;;;;6.90;2.80;;;10.80;22.60;;;;;;5038544;28;20472;-84
2022/02/13 12:13:14;;;;;;;7.00;3.47;;;10.60;26.30;;;;;;5036932;28;20471;-83
2022/02/13 12:15:52;;;;;;;6.43;3.13;;;10.60;26.30;;;;;;5036390;28;20492;-83
2022/02/13 12:18:20;;;;;;;6.80;3.03;;;10.70;25.60;;;;;;5035915;28;20452;-83
2022/02/13 12:20:48;;;;;;;7.17;3.20;;;11.00;27.70;;;;;;5037516;28;20877;-82
2022/02/13 12:23:17;;;;;;;11.23;3.53;;;11.30;27.90;;;;;;5037430;28;20489;-82
2022/02/13 12:25:46;;;;;;;5.77;3.00;;;11.30;27.90;;;;;;5035833;28;20452;-81
2022/02/13 12:28:15;;;;;;;9.00;4.13;;;12.00;26.10;;;;;;5036152;28;20977;-83
2022/02/13 12:30:48;;;;;;;9.60;3.40;;;12.60;25.70;;;;;;5035322;28;20494;-83
2022/02/13 12:33:17;;;;;;;8.23;3.40;;;13.20;23.40;;;;;;5035969;28;20472;-82
2022/02/13 12:35:46;;;;;;;6.47;3.40;;;13.70;22.50;;;;;;5036389;28;20875;-82
2022/02/13 12:38:13;;;;;;;6.73;3.20;;;13.80;20.30;;;;;;5034284;28;20518;-83
2022/02/13 12:40:44;;;;;;;9.00;4.00;;;14.10;20.10;;;;;;5035946;28;20550;-82
2022/02/13 12:43:16;;;;;;;6.40;3.10;;;13.90;20.20;;;;;;5034890;28;20479;-84
2022/02/13 12:45:44;;;;;;;7.73;3.50;;;13.90;19.10;;;;;;5035939;28;20451;-83
2022/02/13 12:48:14;;;;;;;6.23;2.97;;;13.70;20.20;;;;;;5036720;28;20461;-82
2022/02/13 12:50:46;;;;;;;7.10;3.43;;;14.10;21.30;;;;;;5035425;28;20480;-82
2022/02/13 12:53:15;;;;;;;8.00;3.57;;;14.00;20.10;;;;;;5034746;28;20492;-83
2022/02/13 12:55:43;;;;;;;6.57;3.40;;;13.60;20.50;;;;;;5036364;28;20459;-83
2022/02/13 12:58:11;;;;;;;7.60;3.10;;;13.50;20.30;;;;;;5017960;28;20486;-83
2022/02/13 13:00:44;;;;;;;7.60;3.27;;;13.50;21.70;;;;;;5032235;28;20950;-83
2022/02/13 13:03:13;;;;;;;6.90;3.23;;;13.40;22.30;;;;;;5036911;28;20507;-82
2022/02/13 13:05:42;;;;;;;7.03;3.13;;;13.20;20.80;;;;;;5036872;28;20452;-83
2022/02/13 13:08:13;;;;;;;7.03;3.80;;;13.20;22.10;;;;;;5037170;28;20451;-83
2022/02/13 13:10:52;;;;;;;7.67;3.83;;;13.20;20.60;;;;;;5037596;28;20487;-83
2022/02/13 13:13:20;;;;;;;7.90;3.17;;;13.00;23.70;;;;;;5037781;28;20475;-83
2022/02/13 13:15:56;;;;;;;7.10;3.00;;;12.90;25.70;;;;;;5037716;28;20466;-82
2022/02/13 13:18:35;;;;;;;8.13;3.73;;;12.90;25.90;;;;;;5036629;28;20966;-84
2022/02/13 13:21:13;;;;;;;11.17;3.80;;;12.80;26.90;;;;;;5037103;28;20445;-83
2022/02/13 13:26:37;;;;;;;7.13;3.60;;;13.00;25.70;;;;;;5094573;27;20538;-83
2022/02/13 13:29:24;;;;;;;7.07;2.97;;;13.00;27.00;;;;;;5094088;28;20449;-84
2022/02/13 13:31:59;;;;;;;7.80;4.47;;;13.10;25.70;;;;;;5102118;28;20478;-84
2022/02/13 13:34:26;;;;;;;8.47;4.20;;;13.20;27.00;;;;;;5114741;28;20818;-84
2022/02/13 13:36:53;;;;;;;13.80;3.90;;;12.90;25.80;;;;;;5077868;28;20459;-84
2022/02/13 13:39:24;;;;;;;7.87;3.63;;;13.10;27.00;;;;;;5093626;28;20456;-84
2022/02/13 13:41:52;;;;;;;10.67;4.10;;;12.70;27.00;;;;;;5082537;28;20451;-84